sensor_id;sensor_type;location;lat;lon;timestamp;pressure;altitude;pressure_sealevel;temperature;humidity
57600;BME280;43426;43.594;24.334;2023-05-02T00:00:01;101527.69;;;12.13;66.14
57600;BME280;43426;43.594;24.334;2023-05-02T00:02:27;101533.91;;;12.05;66.38
57600;BME280;43426;43.594;24.334;2023-05-02T00:04:53;101541.13;;;11.96;66.90
57600;BME280;43426;43.594;24.334;2023-05-02T00:07:18;101540.44;;;11.94;66.65
57600;BME280;43426;43.594;24.334;2023-05-02T00:09:44;101545.28;;;11.90;67.09
57600;BME280;43426;43.594;24.334;2023-05-02T00:12:10;101539.97;;;11.81;67.19
57600;BME280;43426;43.594;24.334;2023-05-02T00:14:35;101542.28;;;11.67;68.04
57600;BME280;43426;43.594;24.334;2023-05-02T00:17:01;101548.31;;;11.61;68.65
57600;BME280;43426;43.594;24.334;2023-05-02T00:19:26;101552.88;;;11.61;68.69
57600;BME280;43426;43.594;24.334;2023-05-02T00:21:51;101544.59;;;11.62;69.39
57600;BME280;43426;43.594;24.334;2023-05-02T00:24:17;101542.53;;;11.56;69.80
57600;BME280;43426;43.594;24.334;2023-05-02T00:26:43;101540.78;;;11.47;70.02
57600;BME280;43426;43.594;24.334;2023-05-02T00:29:08;101546.13;;;11.38;70.13
57600;BME280;43426;43.594;24.334;2023-05-02T00:31:33;101553.16;;;11.31;70.26
57600;BME280;43426;43.594;24.334;2023-05-02T00:33:59;101555.88;;;11.31;70.67
57600;BME280;43426;43.594;24.334;2023-05-02T00:36:25;101551.97;;;11.34;71.21
57600;BME280;43426;43.594;24.334;2023-05-02T00:38:51;101555.88;;;11.31;70.99
57600;BME280;43426;43.594;24.334;2023-05-02T00:41:16;101558.34;;;11.24;71.54
57600;BME280;43426;43.594;24.334;2023-05-02T00:43:42;101559.50;;;11.22;71.66
57600;BME280;43426;43.594;24.334;2023-05-02T00:46:07;101558.63;;;11.21;71.48
57600;BME280;43426;43.594;24.334;2023-05-02T00:48:33;101563.66;;;10.98;72.50
57600;BME280;43426;43.594;24.334;2023-05-02T00:51:01;101555.72;;;10.97;73.09
57600;BME280;43426;43.594;24.334;2023-05-02T00:53:26;101563.09;;;10.95;72.86
57600;BME280;43426;43.594;24.334;2023-05-02T00:55:54;101565.97;;;10.93;73.33
57600;BME280;43426;43.594;24.334;2023-05-02T00:58:21;101568.09;;;10.89;73.63
57600;BME280;43426;43.594;24.334;2023-05-02T01:08:34;101576.94;;;10.64;74.67
57600;BME280;43426;43.594;24.334;2023-05-02T01:11:10;101572.13;;;10.57;75.31
57600;BME280;43426;43.594;24.334;2023-05-02T01:13:39;101574.31;;;10.54;75.32
57600;BME280;43426;43.594;24.334;2023-05-02T01:16:06;101572.28;;;10.56;75.11
57600;BME280;43426;43.594;24.334;2023-05-02T01:18:34;101578.09;;;10.61;74.67
57600;BME280;43426;43.594;24.334;2023-05-02T01:21:02;101577.53;;;10.57;74.08
57600;BME280;43426;43.594;24.334;2023-05-02T01:23:38;101575.75;;;10.48;75.06
57600;BME280;43426;43.594;24.334;2023-05-02T01:26:14;101574.88;;;10.48;75.68
57600;BME280;43426;43.594;24.334;2023-05-02T01:28:50;101573.22;;;10.47;75.66
57600;BME280;43426;43.594;24.334;2023-05-02T01:31:17;101577.78;;;10.36;75.73
57600;BME280;43426;43.594;24.334;2023-05-02T01:33:43;101577.13;;;10.25;76.07
57600;BME280;43426;43.594;24.334;2023-05-02T01:36:09;101579.66;;;10.26;76.53
57600;BME280;43426;43.594;24.334;2023-05-02T01:38:38;101572.34;;;10.09;76.80
57600;BME280;43426;43.594;24.334;2023-05-02T01:41:04;101573.22;;;9.99;77.73
57600;BME280;43426;43.594;24.334;2023-05-02T01:43:31;101570.78;;;10.06;77.82
57600;BME280;43426;43.594;24.334;2023-05-02T01:45:57;101578.59;;;9.99;78.00
57600;BME280;43426;43.594;24.334;2023-05-02T01:48:23;101580.03;;;9.94;77.45
57600;BME280;43426;43.594;24.334;2023-05-02T01:50:52;101586.91;;;9.68;78.76
57600;BME280;43426;43.594;24.334;2023-05-02T01:53:18;101570.16;;;9.75;79.07
57600;BME280;43426;43.594;24.334;2023-05-02T01:55:46;101582.13;;;9.62;79.61
57600;BME280;43426;43.594;24.334;2023-05-02T01:58:13;101585.19;;;9.67;79.36
57600;BME280;43426;43.594;24.334;2023-05-02T02:00:39;101580.94;;;9.75;79.56
57600;BME280;43426;43.594;24.334;2023-05-02T02:03:05;101570.59;;;9.70;79.40
57600;BME280;43426;43.594;24.334;2023-05-02T02:05:32;101567.91;;;9.60;79.58
57600;BME280;43426;43.594;24.334;2023-05-02T02:07:58;101568.06;;;9.59;79.91
57600;BME280;43426;43.594;24.334;2023-05-02T02:10:23;101571.06;;;9.56;79.83
57600;BME280;43426;43.594;24.334;2023-05-02T02:12:51;101561.81;;;9.48;79.41
57600;BME280;43426;43.594;24.334;2023-05-02T02:15:24;101565.81;;;9.34;80.71
57600;BME280;43426;43.594;24.334;2023-05-02T02:20:31;101572.22;;;9.33;79.17
57600;BME280;43426;43.594;24.334;2023-05-02T02:22:57;101567.66;;;9.24;79.56
57600;BME280;43426;43.594;24.334;2023-05-02T02:25:24;101567.38;;;9.08;80.62
57600;BME280;43426;43.594;24.334;2023-05-02T02:27:51;101569.78;;;9.11;80.56
57600;BME280;43426;43.594;24.334;2023-05-02T02:30:16;101565.28;;;9.11;81.27
57600;BME280;43426;43.594;24.334;2023-05-02T02:32:41;101571.94;;;9.17;80.88
57600;BME280;43426;43.594;24.334;2023-05-02T02:35:09;101574.63;;;9.17;80.25
57600;BME280;43426;43.594;24.334;2023-05-02T02:37:45;101570.78;;;9.10;79.65
57600;BME280;43426;43.594;24.334;2023-05-02T02:40:13;101577.72;;;9.02;80.73
57600;BME280;43426;43.594;24.334;2023-05-02T02:42:47;101575.31;;;8.99;81.10
57600;BME280;43426;43.594;24.334;2023-05-02T02:53:17;101574.03;;;9.13;81.56
57600;BME280;43426;43.594;24.334;2023-05-02T02:55:56;101578.72;;;9.11;81.07
57600;BME280;43426;43.594;24.334;2023-05-02T03:00:47;101590.91;;;9.06;80.01
57600;BME280;43426;43.594;24.334;2023-05-02T03:03:13;101588.22;;;9.06;79.75
57600;BME280;43426;43.594;24.334;2023-05-02T03:05:40;101592.16;;;8.92;80.04
57600;BME280;43426;43.594;24.334;2023-05-02T03:08:06;101590.84;;;8.86;80.08
57600;BME280;43426;43.594;24.334;2023-05-02T03:10:33;101598.94;;;8.86;80.93
57600;BME280;43426;43.594;24.334;2023-05-02T03:12:59;101599.81;;;8.86;81.71
57600;BME280;43426;43.594;24.334;2023-05-02T03:18:08;101605.19;;;8.96;82.62
57600;BME280;43426;43.594;24.334;2023-05-02T03:20:34;101604.38;;;9.15;82.02
57600;BME280;43426;43.594;24.334;2023-05-02T03:22:59;101607.47;;;9.20;82.17
57600;BME280;43426;43.594;24.334;2023-05-02T03:25:24;101613.88;;;9.19;82.15
57600;BME280;43426;43.594;24.334;2023-05-02T03:27:49;101615.31;;;9.33;81.83
57600;BME280;43426;43.594;24.334;2023-05-02T03:30:15;101615.16;;;9.45;81.21
57600;BME280;43426;43.594;24.334;2023-05-02T03:32:40;101622.09;;;9.47;80.96
57600;BME280;43426;43.594;24.334;2023-05-02T03:35:05;101621.22;;;9.57;80.55
57600;BME280;43426;43.594;24.334;2023-05-02T03:37:32;101623.94;;;9.66;81.12
57600;BME280;43426;43.594;24.334;2023-05-02T03:39:58;101623.78;;;9.78;80.07
57600;BME280;43426;43.594;24.334;2023-05-02T03:42:23;101628.53;;;10.03;79.08
57600;BME280;43426;43.594;24.334;2023-05-02T03:44:50;101628.38;;;10.25;78.32
57600;BME280;43426;43.594;24.334;2023-05-02T03:47:18;101626.91;;;10.40;77.20
57600;BME280;43426;43.594;24.334;2023-05-02T03:49:43;101624.03;;;10.51;76.86
57600;BME280;43426;43.594;24.334;2023-05-02T03:52:08;101626.63;;;10.71;76.35
57600;BME280;43426;43.594;24.334;2023-05-02T03:54:34;101635.59;;;10.89;75.40
57600;BME280;43426;43.594;24.334;2023-05-02T03:56:59;101630.19;;;11.17;73.95
57600;BME280;43426;43.594;24.334;2023-05-02T03:59:25;101631.19;;;11.34;73.72
57600;BME280;43426;43.594;24.334;2023-05-02T04:01:51;101635.44;;;11.55;72.52
57600;BME280;43426;43.594;24.334;2023-05-02T04:04:17;101640.03;;;11.81;71.69
57600;BME280;43426;43.594;24.334;2023-05-02T04:06:42;101641.91;;;11.98;71.22
57600;BME280;43426;43.594;24.334;2023-05-02T04:09:08;101638.38;;;12.32;69.92
57600;BME280;43426;43.594;24.334;2023-05-02T04:11:33;101636.88;;;12.30;68.98
57600;BME280;43426;43.594;24.334;2023-05-02T04:13:58;101641.16;;;12.49;68.73
57600;BME280;43426;43.594;24.334;2023-05-02T04:16:24;101635.53;;;12.68;67.66
57600;BME280;43426;43.594;24.334;2023-05-02T04:18:49;101636.63;;;12.92;67.30
57600;BME280;43426;43.594;24.334;2023-05-02T04:21:14;101639.00;;;12.95;67.04
57600;BME280;43426;43.594;24.334;2023-05-02T04:23:40;101633.94;;;13.00;66.41
57600;BME280;43426;43.594;24.334;2023-05-02T04:26:05;101635.63;;;13.01;66.68
57600;BME280;43426;43.594;24.334;2023-05-02T04:28:31;101637.22;;;13.28;66.17
57600;BME280;43426;43.594;24.334;2023-05-02T04:30:56;101636.25;;;13.46;65.11
57600;BME280;43426;43.594;24.334;2023-05-02T04:33:21;101645.25;;;13.55;64.48
57600;BME280;43426;43.594;24.334;2023-05-02T04:35:47;101644.91;;;13.74;63.99
57600;BME280;43426;43.594;24.334;2023-05-02T04:38:12;101647.78;;;14.06;62.74
57600;BME280;43426;43.594;24.334;2023-05-02T04:40:38;101650.94;;;14.34;60.82
57600;BME280;43426;43.594;24.334;2023-05-02T04:43:03;101653.31;;;14.37;61.20
57600;BME280;43426;43.594;24.334;2023-05-02T04:45:28;101653.78;;;14.41;60.79
57600;BME280;43426;43.594;24.334;2023-05-02T04:47:54;101652.91;;;14.65;59.26
57600;BME280;43426;43.594;24.334;2023-05-02T04:50:19;101649.09;;;14.82;59.00
57600;BME280;43426;43.594;24.334;2023-05-02T04:52:44;101656.06;;;15.17;58.41
57600;BME280;43426;43.594;24.334;2023-05-02T04:55:10;101653.72;;;15.60;58.02
57600;BME280;43426;43.594;24.334;2023-05-02T04:57:35;101657.91;;;15.94;56.89
57600;BME280;43426;43.594;24.334;2023-05-02T05:00:00;101664.00;;;15.96;55.82
57600;BME280;43426;43.594;24.334;2023-05-02T05:02:26;101655.63;;;15.82;55.58
57600;BME280;43426;43.594;24.334;2023-05-02T05:04:51;101653.78;;;16.13;55.50
57600;BME280;43426;43.594;24.334;2023-05-02T05:07:17;101652.50;;;16.24;54.70
57600;BME280;43426;43.594;24.334;2023-05-02T05:09:42;101648.09;;;16.23;56.12
57600;BME280;43426;43.594;24.334;2023-05-02T05:12:07;101648.94;;;16.53;54.54
57600;BME280;43426;43.594;24.334;2023-05-02T05:14:33;101653.88;;;16.79;54.02
57600;BME280;43426;43.594;24.334;2023-05-02T05:16:58;101653.72;;;16.81;53.51
57600;BME280;43426;43.594;24.334;2023-05-02T05:19:23;101653.03;;;17.09;52.71
57600;BME280;43426;43.594;24.334;2023-05-02T05:21:49;101649.56;;;17.58;51.03
57600;BME280;43426;43.594;24.334;2023-05-02T05:24:14;101656.19;;;17.92;50.55
57600;BME280;43426;43.594;24.334;2023-05-02T05:26:40;101656.50;;;18.32;49.93
57600;BME280;43426;43.594;24.334;2023-05-02T05:29:05;101649.13;;;18.68;49.35
57600;BME280;43426;43.594;24.334;2023-05-02T05:31:31;101653.91;;;18.94;48.61
57600;BME280;43426;43.594;24.334;2023-05-02T05:33:57;101644.28;;;19.18;48.05
57600;BME280;43426;43.594;24.334;2023-05-02T05:36:22;101648.31;;;19.29;47.36
57600;BME280;43426;43.594;24.334;2023-05-02T05:38:47;101650.91;;;19.64;46.98
57600;BME280;43426;43.594;24.334;2023-05-02T05:41:12;101655.34;;;19.79;46.88
57600;BME280;43426;43.594;24.334;2023-05-02T05:43:38;101657.91;;;20.00;45.78
57600;BME280;43426;43.594;24.334;2023-05-02T05:46:03;101661.69;;;20.26;45.33
57600;BME280;43426;43.594;24.334;2023-05-02T05:48:28;101661.00;;;20.51;45.61
57600;BME280;43426;43.594;24.334;2023-05-02T05:50:53;101660.53;;;20.67;44.03
57600;BME280;43426;43.594;24.334;2023-05-02T05:53:22;101661.13;;;20.89;43.63
57600;BME280;43426;43.594;24.334;2023-05-02T05:55:47;101665.72;;;20.96;42.94
57600;BME280;43426;43.594;24.334;2023-05-02T05:58:12;101664.75;;;21.22;43.87
57600;BME280;43426;43.594;24.334;2023-05-02T06:00:38;101664.78;;;21.15;43.17
57600;BME280;43426;43.594;24.334;2023-05-02T06:03:03;101651.25;;;21.20;43.85
57600;BME280;43426;43.594;24.334;2023-05-02T06:05:29;101657.69;;;21.01;43.06
57600;BME280;43426;43.594;24.334;2023-05-02T06:07:55;101649.06;;;21.29;43.35
57600;BME280;43426;43.594;24.334;2023-05-02T06:10:20;101653.06;;;21.33;43.31
57600;BME280;43426;43.594;24.334;2023-05-02T06:12:46;101660.19;;;21.09;42.18
57600;BME280;43426;43.594;24.334;2023-05-02T06:15:11;101665.88;;;21.07;41.68
57600;BME280;43426;43.594;24.334;2023-05-02T06:17:36;101662.44;;;20.73;42.85
57600;BME280;43426;43.594;24.334;2023-05-02T06:20:02;101662.16;;;20.88;43.02
57600;BME280;43426;43.594;24.334;2023-05-02T06:22:27;101652.09;;;21.14;41.63
57600;BME280;43426;43.594;24.334;2023-05-02T06:24:53;101655.19;;;20.92;41.64
57600;BME280;43426;43.594;24.334;2023-05-02T06:27:18;101651.22;;;20.75;42.06
57600;BME280;43426;43.594;24.334;2023-05-02T06:29:43;101651.97;;;20.23;43.51
57600;BME280;43426;43.594;24.334;2023-05-02T06:32:09;101648.19;;;20.11;44.15
57600;BME280;43426;43.594;24.334;2023-05-02T06:34:34;101645.00;;;20.34;44.31
57600;BME280;43426;43.594;24.334;2023-05-02T06:36:59;101645.59;;;20.56;43.93
57600;BME280;43426;43.594;24.334;2023-05-02T06:39:25;101650.84;;;20.65;42.13
57600;BME280;43426;43.594;24.334;2023-05-02T06:41:50;101651.09;;;20.36;42.33
57600;BME280;43426;43.594;24.334;2023-05-02T06:44:15;101644.56;;;20.44;42.81
57600;BME280;43426;43.594;24.334;2023-05-02T06:46:41;101645.22;;;20.33;42.49
57600;BME280;43426;43.594;24.334;2023-05-02T06:49:06;101636.34;;;20.31;42.74
57600;BME280;43426;43.594;24.334;2023-05-02T06:51:32;101641.00;;;20.37;43.36
57600;BME280;43426;43.594;24.334;2023-05-02T06:53:57;101635.06;;;20.53;42.73
57600;BME280;43426;43.594;24.334;2023-05-02T06:56:23;101635.47;;;21.09;41.49
57600;BME280;43426;43.594;24.334;2023-05-02T06:58:49;101644.56;;;21.03;42.84
57600;BME280;43426;43.594;24.334;2023-05-02T07:01:15;101637.34;;;21.08;41.20
57600;BME280;43426;43.594;24.334;2023-05-02T07:03:40;101642.81;;;21.15;41.48
57600;BME280;43426;43.594;24.334;2023-05-02T07:06:05;101632.25;;;21.19;39.58
57600;BME280;43426;43.594;24.334;2023-05-02T07:08:30;101633.88;;;21.26;38.99
57600;BME280;43426;43.594;24.334;2023-05-02T07:10:56;101632.44;;;21.24;40.43
57600;BME280;43426;43.594;24.334;2023-05-02T07:13:21;101635.31;;;21.36;38.59
57600;BME280;43426;43.594;24.334;2023-05-02T07:15:46;101637.59;;;21.39;39.84
57600;BME280;43426;43.594;24.334;2023-05-02T07:18:12;101641.50;;;21.24;38.52
57600;BME280;43426;43.594;24.334;2023-05-02T07:20:37;101629.78;;;21.42;38.49
57600;BME280;43426;43.594;24.334;2023-05-02T07:23:04;101639.56;;;21.64;37.22
57600;BME280;43426;43.594;24.334;2023-05-02T07:25:29;101633.31;;;21.82;36.62
57600;BME280;43426;43.594;24.334;2023-05-02T07:27:55;101627.25;;;21.73;38.00
57600;BME280;43426;43.594;24.334;2023-05-02T07:30:20;101630.78;;;21.80;37.97
57600;BME280;43426;43.594;24.334;2023-05-02T07:32:45;101635.50;;;21.73;36.64
57600;BME280;43426;43.594;24.334;2023-05-02T07:35:10;101632.47;;;21.49;37.24
57600;BME280;43426;43.594;24.334;2023-05-02T07:37:36;101637.06;;;21.87;37.60
57600;BME280;43426;43.594;24.334;2023-05-02T07:40:01;101630.38;;;22.02;38.39
57600;BME280;43426;43.594;24.334;2023-05-02T07:42:30;101637.81;;;22.20;37.50
57600;BME280;43426;43.594;24.334;2023-05-02T07:44:55;101630.94;;;22.29;36.27
57600;BME280;43426;43.594;24.334;2023-05-02T07:47:20;101633.16;;;22.20;37.27
57600;BME280;43426;43.594;24.334;2023-05-02T07:49:49;101640.66;;;22.32;35.93
57600;BME280;43426;43.594;24.334;2023-05-02T07:52:14;101645.63;;;22.23;34.53
57600;BME280;43426;43.594;24.334;2023-05-02T07:54:40;101634.88;;;22.40;35.71
57600;BME280;43426;43.594;24.334;2023-05-02T07:57:05;101644.78;;;22.22;34.56
57600;BME280;43426;43.594;24.334;2023-05-02T07:59:32;101633.06;;;22.34;32.98
57600;BME280;43426;43.594;24.334;2023-05-02T08:01:57;101637.78;;;22.64;34.60
57600;BME280;43426;43.594;24.334;2023-05-02T08:04:23;101645.09;;;22.88;34.21
57600;BME280;43426;43.594;24.334;2023-05-02T08:06:51;101646.88;;;22.83;33.81
57600;BME280;43426;43.594;24.334;2023-05-02T08:09:16;101641.16;;;22.66;33.68
57600;BME280;43426;43.594;24.334;2023-05-02T08:11:41;101636.84;;;22.88;33.76
57600;BME280;43426;43.594;24.334;2023-05-02T08:14:07;101637.16;;;22.80;33.20
57600;BME280;43426;43.594;24.334;2023-05-02T08:16:32;101628.50;;;22.95;33.88
57600;BME280;43426;43.594;24.334;2023-05-02T08:18:57;101644.19;;;22.94;32.96
57600;BME280;43426;43.594;24.334;2023-05-02T08:21:23;101644.13;;;22.83;32.13
57600;BME280;43426;43.594;24.334;2023-05-02T08:23:48;101624.66;;;22.66;32.76
57600;BME280;43426;43.594;24.334;2023-05-02T08:26:13;101627.69;;;22.94;32.48
57600;BME280;43426;43.594;24.334;2023-05-02T08:28:40;101626.84;;;23.24;32.71
57600;BME280;43426;43.594;24.334;2023-05-02T08:31:05;101631.44;;;23.31;31.60
57600;BME280;43426;43.594;24.334;2023-05-02T08:33:30;101634.66;;;23.09;31.04
57600;BME280;43426;43.594;24.334;2023-05-02T08:35:55;101638.69;;;22.94;32.13
57600;BME280;43426;43.594;24.334;2023-05-02T08:38:21;101631.09;;;22.90;31.60
57600;BME280;43426;43.594;24.334;2023-05-02T08:40:48;101632.50;;;23.29;31.98
57600;BME280;43426;43.594;24.334;2023-05-02T08:43:15;101620.97;;;23.51;32.73
57600;BME280;43426;43.594;24.334;2023-05-02T08:45:41;101619.28;;;23.50;30.53
57600;BME280;43426;43.594;24.334;2023-05-02T08:48:07;101630.78;;;23.47;30.13
57600;BME280;43426;43.594;24.334;2023-05-02T08:50:40;101618.69;;;23.18;30.54
57600;BME280;43426;43.594;24.334;2023-05-02T08:53:10;101631.97;;;23.51;31.54
57600;BME280;43426;43.594;24.334;2023-05-02T08:55:36;101621.31;;;23.55;31.10
57600;BME280;43426;43.594;24.334;2023-05-02T08:58:04;101609.59;;;23.59;30.23
57600;BME280;43426;43.594;24.334;2023-05-02T09:00:30;101616.19;;;23.82;31.34
57600;BME280;43426;43.594;24.334;2023-05-02T09:05:26;101620.19;;;24.22;31.84
57600;BME280;43426;43.594;24.334;2023-05-02T09:07:51;101609.03;;;24.17;29.44
57600;BME280;43426;43.594;24.334;2023-05-02T09:10:17;101605.66;;;23.79;29.40
57600;BME280;43426;43.594;24.334;2023-05-02T09:12:42;101598.25;;;24.03;29.24
57600;BME280;43426;43.594;24.334;2023-05-02T09:15:11;101599.78;;;23.87;29.58
57600;BME280;43426;43.594;24.334;2023-05-02T09:17:40;101604.97;;;23.95;30.67
57600;BME280;43426;43.594;24.334;2023-05-02T09:20:06;101597.31;;;24.09;29.60
57600;BME280;43426;43.594;24.334;2023-05-02T09:22:32;101601.75;;;23.99;28.87
57600;BME280;43426;43.594;24.334;2023-05-02T09:25:00;101599.22;;;23.97;29.05
57600;BME280;43426;43.594;24.334;2023-05-02T09:27:26;101600.88;;;23.86;28.87
57600;BME280;43426;43.594;24.334;2023-05-02T09:29:51;101595.97;;;23.88;28.95
57600;BME280;43426;43.594;24.334;2023-05-02T09:32:16;101598.50;;;24.02;29.09
57600;BME280;43426;43.594;24.334;2023-05-02T09:34:55;101599.03;;;24.39;28.88
57600;BME280;43426;43.594;24.334;2023-05-02T09:37:33;101591.47;;;24.46;28.10
57600;BME280;43426;43.594;24.334;2023-05-02T09:40:06;101585.38;;;24.44;29.27
57600;BME280;43426;43.594;24.334;2023-05-02T09:42:31;101588.63;;;24.82;29.45
57600;BME280;43426;43.594;24.334;2023-05-02T09:44:56;101573.94;;;24.93;28.13
57600;BME280;43426;43.594;24.334;2023-05-02T09:47:25;101590.31;;;25.12;28.63
57600;BME280;43426;43.594;24.334;2023-05-02T09:49:51;101578.97;;;24.68;26.84
57600;BME280;43426;43.594;24.334;2023-05-02T09:52:17;101581.47;;;24.57;28.04
57600;BME280;43426;43.594;24.334;2023-05-02T09:54:43;101580.22;;;24.48;27.15
57600;BME280;43426;43.594;24.334;2023-05-02T09:57:10;101572.94;;;24.83;28.83
57600;BME280;43426;43.594;24.334;2023-05-02T09:59:35;101567.34;;;24.94;26.41
57600;BME280;43426;43.594;24.334;2023-05-02T10:02:01;101568.28;;;24.71;27.25
57600;BME280;43426;43.594;24.334;2023-05-02T10:04:27;101565.31;;;24.49;26.97
57600;BME280;43426;43.594;24.334;2023-05-02T10:06:53;101557.88;;;24.61;27.66
57600;BME280;43426;43.594;24.334;2023-05-02T10:09:19;101563.09;;;24.75;26.63
57600;BME280;43426;43.594;24.334;2023-05-02T10:11:45;101564.72;;;24.88;27.45
57600;BME280;43426;43.594;24.334;2023-05-02T10:14:11;101559.84;;;24.78;26.79
57600;BME280;43426;43.594;24.334;2023-05-02T10:16:46;101569.53;;;24.92;27.18
57600;BME280;43426;43.594;24.334;2023-05-02T10:19:18;101556.41;;;24.71;27.48
57600;BME280;43426;43.594;24.334;2023-05-02T10:21:47;101557.69;;;24.80;26.33
57600;BME280;43426;43.594;24.334;2023-05-02T10:24:13;101552.50;;;24.84;27.70
57600;BME280;43426;43.594;24.334;2023-05-02T10:26:39;101555.59;;;24.46;27.68
57600;BME280;43426;43.594;24.334;2023-05-02T10:29:05;101554.66;;;24.41;28.96
57600;BME280;43426;43.594;24.334;2023-05-02T10:31:33;101549.22;;;24.87;27.88
57600;BME280;43426;43.594;24.334;2023-05-02T10:34:01;101551.44;;;25.02;28.32
57600;BME280;43426;43.594;24.334;2023-05-02T10:36:27;101541.78;;;25.16;29.07
57600;BME280;43426;43.594;24.334;2023-05-02T10:38:52;101539.13;;;25.38;28.30
57600;BME280;43426;43.594;24.334;2023-05-02T10:41:19;101547.94;;;25.52;26.21
57600;BME280;43426;43.594;24.334;2023-05-02T10:43:47;101539.28;;;25.48;27.37
57600;BME280;43426;43.594;24.334;2023-05-02T10:49:14;101534.78;;;25.42;27.21
57600;BME280;43426;43.594;24.334;2023-05-02T10:51:40;101546.09;;;25.41;26.03
57600;BME280;43426;43.594;24.334;2023-05-02T10:54:20;101536.88;;;25.52;26.35
57600;BME280;43426;43.594;24.334;2023-05-02T10:59:27;101536.88;;;26.08;26.57
57600;BME280;43426;43.594;24.334;2023-05-02T11:01:56;101532.56;;;25.61;26.33
57600;BME280;43426;43.594;24.334;2023-05-02T11:04:21;101533.13;;;25.80;26.12
57600;BME280;43426;43.594;24.334;2023-05-02T11:11:50;101526.59;;;26.04;25.50
57600;BME280;43426;43.594;24.334;2023-05-02T11:19:19;101533.91;;;25.76;25.67
57600;BME280;43426;43.594;24.334;2023-05-02T11:21:45;101517.69;;;25.45;25.24
57600;BME280;43426;43.594;24.334;2023-05-02T11:27:04;101513.31;;;25.66;26.22
57600;BME280;43426;43.594;24.334;2023-05-02T11:29:52;101520.44;;;25.62;25.15
57600;BME280;43426;43.594;24.334;2023-05-02T11:32:18;101525.78;;;25.18;24.70
57600;BME280;43426;43.594;24.334;2023-05-02T11:34:43;101517.88;;;25.39;25.20
57600;BME280;43426;43.594;24.334;2023-05-02T11:37:12;101508.63;;;25.50;26.08
57600;BME280;43426;43.594;24.334;2023-05-02T11:39:38;101502.16;;;25.61;25.17
57600;BME280;43426;43.594;24.334;2023-05-02T11:42:03;101511.75;;;25.54;25.04
57600;BME280;43426;43.594;24.334;2023-05-02T11:44:29;101504.56;;;25.36;26.23
57600;BME280;43426;43.594;24.334;2023-05-02T11:46:54;101493.66;;;25.46;24.22
57600;BME280;43426;43.594;24.334;2023-05-02T11:49:19;101502.59;;;25.53;25.64
57600;BME280;43426;43.594;24.334;2023-05-02T11:51:45;101493.56;;;25.58;24.71
57600;BME280;43426;43.594;24.334;2023-05-02T11:54:16;101486.88;;;25.54;25.46
57600;BME280;43426;43.594;24.334;2023-05-02T11:56:42;101496.72;;;25.66;24.31
57600;BME280;43426;43.594;24.334;2023-05-02T11:59:07;101494.25;;;25.48;24.83
57600;BME280;43426;43.594;24.334;2023-05-02T12:01:33;101483.94;;;25.60;25.53
57600;BME280;43426;43.594;24.334;2023-05-02T12:04:02;101480.78;;;25.74;24.20
57600;BME280;43426;43.594;24.334;2023-05-02T12:06:27;101479.78;;;25.80;23.66
57600;BME280;43426;43.594;24.334;2023-05-02T12:08:52;101471.50;;;25.80;23.82
57600;BME280;43426;43.594;24.334;2023-05-02T12:11:30;101473.31;;;25.52;23.48
57600;BME280;43426;43.594;24.334;2023-05-02T12:13:55;101462.81;;;25.93;24.61
57600;BME280;43426;43.594;24.334;2023-05-02T12:16:20;101468.09;;;25.95;24.37
57600;BME280;43426;43.594;24.334;2023-05-02T12:18:45;101471.53;;;26.02;24.23
57600;BME280;43426;43.594;24.334;2023-05-02T12:21:11;101458.31;;;25.87;24.17
57600;BME280;43426;43.594;24.334;2023-05-02T12:23:38;101457.31;;;25.93;23.10
57600;BME280;43426;43.594;24.334;2023-05-02T12:26:24;101440.56;;;26.27;23.86
57600;BME280;43426;43.594;24.334;2023-05-02T12:28:54;101459.81;;;26.39;23.32
57600;BME280;43426;43.594;24.334;2023-05-02T12:31:20;101452.69;;;26.21;23.38
57600;BME280;43426;43.594;24.334;2023-05-02T12:33:46;101455.25;;;26.06;21.75
57600;BME280;43426;43.594;24.334;2023-05-02T12:36:12;101432.41;;;25.93;23.12
57600;BME280;43426;43.594;24.334;2023-05-02T12:38:38;101440.91;;;25.87;23.51
57600;BME280;43426;43.594;24.334;2023-05-02T12:41:03;101430.09;;;25.85;23.82
57600;BME280;43426;43.594;24.334;2023-05-02T12:43:41;101429.31;;;25.90;23.64
57600;BME280;43426;43.594;24.334;2023-05-02T12:46:10;101426.66;;;25.78;23.40
57600;BME280;43426;43.594;24.334;2023-05-02T12:48:35;101421.91;;;25.73;23.80
57600;BME280;43426;43.594;24.334;2023-05-02T12:51:00;101419.59;;;25.87;24.11
57600;BME280;43426;43.594;24.334;2023-05-02T12:53:41;101419.06;;;25.90;23.03
57600;BME280;43426;43.594;24.334;2023-05-02T12:56:08;101417.28;;;25.79;23.54
57600;BME280;43426;43.594;24.334;2023-05-02T12:58:41;101414.78;;;25.77;22.54
57600;BME280;43426;43.594;24.334;2023-05-02T13:01:07;101414.41;;;25.91;23.13
57600;BME280;43426;43.594;24.334;2023-05-02T13:03:32;101410.03;;;25.95;23.37
57600;BME280;43426;43.594;24.334;2023-05-02T13:05:57;101403.13;;;25.97;23.56
57600;BME280;43426;43.594;24.334;2023-05-02T13:08:23;101406.28;;;25.62;22.40
57600;BME280;43426;43.594;24.334;2023-05-02T13:10:48;101400.31;;;25.48;22.38
57600;BME280;43426;43.594;24.334;2023-05-02T13:13:13;101401.78;;;25.56;23.37
57600;BME280;43426;43.594;24.334;2023-05-02T13:15:39;101402.34;;;25.36;22.67
57600;BME280;43426;43.594;24.334;2023-05-02T13:18:05;101401.13;;;25.48;22.97
57600;BME280;43426;43.594;24.334;2023-05-02T13:20:30;101398.06;;;25.45;22.34